createdAt,value
2017-08-15T00:00:40.958Z,101178.05
2017-08-15T00:03:08.347Z,101179.03
2017-08-15T00:05:35.740Z,101169.74
2017-08-15T00:08:03.123Z,101168.30
2017-08-15T00:10:30.511Z,101171.06
2017-08-15T00:12:57.900Z,101167.19
2017-08-15T00:15:25.286Z,101164.37
2017-08-15T00:17:52.678Z,101170.37
2017-08-15T00:20:20.078Z,101165.80
2017-08-15T00:22:47.467Z,101161.58
2017-08-15T00:25:14.866Z,101155.53
2017-08-15T00:27:42.269Z,101152.31
2017-08-15T00:30:09.655Z,101153.52
2017-08-15T00:32:37.046Z,101148.75
2017-08-15T00:35:04.450Z,101147.06
2017-08-15T00:37:31.842Z,101149.17
2017-08-15T00:39:59.246Z,101145.02
2017-08-15T00:42:26.622Z,101144.05
2017-08-15T00:44:54.023Z,101135.73
2017-08-15T00:47:21.451Z,101138.20
2017-08-15T00:49:48.830Z,101135.41
2017-08-15T00:52:16.220Z,101132.03
2017-08-15T00:54:43.816Z,101133.82
2017-08-15T00:57:11.210Z,101127.78
2017-08-15T00:59:38.596Z,101120.55
2017-08-15T01:02:05.991Z,101120.99
2017-08-15T01:04:33.383Z,101118.86
2017-08-15T01:07:00.920Z,101118.94
2017-08-15T01:09:28.307Z,101114.50
2017-08-15T01:11:55.699Z,101118.67
2017-08-15T01:14:23.082Z,101118.02
2017-08-15T01:16:50.506Z,101110.91
2017-08-15T01:19:17.898Z,101112.48
2017-08-15T01:21:45.290Z,101119.31
2017-08-15T01:24:12.687Z,101111.22
2017-08-15T01:26:40.089Z,101117.99
2017-08-15T01:29:07.462Z,101111.42
2017-08-15T01:31:34.867Z,101106.67
2017-08-15T01:34:02.256Z,101112.47
2017-08-15T01:36:29.645Z,101107.23
2017-08-15T01:38:57.051Z,101101.20
2017-08-15T01:41:24.434Z,101103.18
2017-08-15T01:43:51.840Z,101103.73
2017-08-15T01:46:19.230Z,101095.78
2017-08-15T01:48:46.631Z,101095.96
2017-08-15T01:51:14.037Z,101096.33
2017-08-15T01:53:41.470Z,101086.52
2017-08-15T01:56:08.858Z,101089.53
2017-08-15T01:58:36.259Z,101086.91
2017-08-15T02:01:03.652Z,101081.94
2017-08-15T02:03:31.044Z,101082.61
2017-08-15T02:05:58.430Z,101077.14
2017-08-15T02:08:25.822Z,101079.60
2017-08-15T02:10:53.206Z,101074.78
2017-08-15T02:13:20.608Z,101071.84
2017-08-15T02:15:47.987Z,101069.77
2017-08-15T02:18:15.383Z,101071.67
2017-08-15T02:20:42.778Z,101062.35
2017-08-15T02:23:10.174Z,101066.44
2017-08-15T02:25:37.555Z,101065.32
2017-08-15T02:28:04.958Z,101060.70
2017-08-15T02:30:32.570Z,101060.83
2017-08-15T02:32:59.975Z,101058.46
2017-08-15T02:35:27.356Z,101055.26
2017-08-15T02:37:54.764Z,101051.63
2017-08-15T02:40:22.155Z,101052.24
2017-08-15T02:42:49.538Z,101054.02
2017-08-15T02:45:16.941Z,101047.13
2017-08-15T02:47:44.324Z,101051.42
2017-08-15T02:50:11.718Z,101043.37
2017-08-15T02:52:39.106Z,101047.30
2017-08-15T02:55:06.503Z,101043.22
2017-08-15T02:57:33.894Z,101042.13
2017-08-15T03:00:01.283Z,101043.09
2017-08-15T03:02:28.673Z,101040.85
2017-08-15T03:04:56.062Z,101036.25
2017-08-15T03:07:23.449Z,101035.22
2017-08-15T03:09:50.842Z,101036.56
2017-08-15T03:12:18.241Z,101032.83
2017-08-15T03:14:45.634Z,101032.45
2017-08-15T03:17:13.034Z,101027.20
2017-08-15T03:19:40.439Z,101024.20
2017-08-15T03:22:07.830Z,101028.91
2017-08-15T03:24:35.223Z,101020.36
2017-08-15T03:27:02.618Z,101025.51
2017-08-15T03:29:30.016Z,101023.22
2017-08-15T03:31:57.407Z,101022.09
2017-08-15T03:34:24.790Z,101025.12
2017-08-15T03:36:52.191Z,101021.17
2017-08-15T03:39:19.572Z,101027.88
2017-08-15T03:41:46.962Z,101030.58
2017-08-15T03:44:14.352Z,101031.50
2017-08-15T03:46:41.743Z,101027.23
2017-08-15T03:49:09.154Z,101030.81
2017-08-15T03:51:36.755Z,101026.81
2017-08-15T03:54:04.147Z,101026.67
2017-08-15T03:56:31.543Z,101025.98
2017-08-15T03:58:58.939Z,101022.70
2017-08-15T04:01:26.327Z,101028.44
2017-08-15T04:03:53.715Z,101025.16
2017-08-15T04:06:21.105Z,101021.95
2017-08-15T04:08:48.655Z,101024.28
2017-08-15T04:11:16.276Z,101028.21
2017-08-15T04:13:43.666Z,101027.77
2017-08-15T04:16:11.051Z,101027.31
2017-08-15T04:18:38.451Z,101033.63
2017-08-15T04:21:05.835Z,101027.55
2017-08-15T04:23:33.256Z,101030.67
2017-08-15T04:26:00.649Z,101033.58
2017-08-15T04:28:28.079Z,101030.81
2017-08-15T04:30:55.539Z,101031.66
2017-08-15T04:33:22.975Z,101029.03
2017-08-15T04:35:50.379Z,101024.95
2017-08-15T04:38:17.771Z,101020.37
2017-08-15T04:40:45.163Z,101028.18
2017-08-15T04:43:12.563Z,101023.89
2017-08-15T04:45:40.164Z,101022.20
2017-08-15T04:48:07.569Z,101012.63
2017-08-15T04:50:34.955Z,101009.19
2017-08-15T04:53:02.356Z,101009.38
2017-08-15T04:55:29.736Z,101015.38
2017-08-15T04:57:57.143Z,101012.36
2017-08-15T05:00:24.535Z,101007.65
2017-08-15T05:02:51.951Z,101007.94
2017-08-15T05:05:19.340Z,101006.74
2017-08-15T05:07:46.733Z,101006.73
2017-08-15T05:10:14.146Z,101004.18
2017-08-15T05:12:41.535Z,101002.97
2017-08-15T05:15:08.931Z,101001.80
2017-08-15T05:17:36.315Z,100996.41
2017-08-15T05:20:03.707Z,100996.46
2017-08-15T05:22:31.106Z,100995.69
2017-08-15T05:24:58.506Z,100993.22
2017-08-15T05:27:25.891Z,100991.37
2017-08-15T05:29:53.518Z,100995.17
2017-08-15T05:32:21.117Z,100992.56
2017-08-15T05:34:48.507Z,100985.26
2017-08-15T05:37:15.897Z,100987.92
2017-08-15T05:39:43.498Z,100986.32
2017-08-15T05:42:10.892Z,100976.63
2017-08-15T05:44:38.287Z,100981.59
2017-08-15T05:47:05.679Z,100975.90
2017-08-15T05:49:33.073Z,100978.89
2017-08-15T05:52:00.683Z,100976.82
2017-08-15T05:54:28.127Z,100973.70
2017-08-15T05:56:55.531Z,100973.08
2017-08-15T05:59:22.929Z,100973.78
2017-08-15T06:01:50.332Z,100972.33
2017-08-15T06:04:17.744Z,100970.15
2017-08-15T06:06:45.379Z,100970.31
2017-08-15T06:09:12.771Z,100971.05
2017-08-15T06:11:40.172Z,100970.45
2017-08-15T06:14:07.861Z,100973.10
2017-08-15T06:16:35.255Z,100970.45
2017-08-15T06:19:02.651Z,100965.16
2017-08-15T06:21:30.039Z,100968.66
2017-08-15T06:23:57.646Z,100976.83
2017-08-15T06:26:25.051Z,100976.40
2017-08-15T06:28:52.442Z,100973.67
2017-08-15T06:31:19.838Z,100969.69
2017-08-15T06:33:47.227Z,100980.85
2017-08-15T06:36:14.631Z,100974.81
2017-08-15T06:38:42.006Z,100974.81
2017-08-15T06:41:09.399Z,100971.39
2017-08-15T06:43:36.792Z,100974.82
2017-08-15T06:46:04.211Z,100975.76
2017-08-15T06:48:31.633Z,100977.92
2017-08-15T06:50:59.226Z,100978.76
2017-08-15T06:53:26.840Z,100976.75
2017-08-15T06:55:54.452Z,100978.41
2017-08-15T06:58:21.859Z,100975.11
2017-08-15T07:00:49.246Z,100973.14
2017-08-15T07:03:16.638Z,100972.16
2017-08-15T07:05:44.034Z,100965.32
2017-08-15T07:08:11.441Z,100970.03
2017-08-15T07:10:38.831Z,100966.05
2017-08-15T07:13:06.447Z,100966.20
2017-08-15T07:15:33.838Z,100971.52
2017-08-15T07:18:01.263Z,100972.73
2017-08-15T07:20:28.654Z,100973.38
2017-08-15T07:22:56.066Z,100964.36
2017-08-15T07:25:23.443Z,100954.86
2017-08-15T07:27:50.839Z,100955.03
2017-08-15T07:30:18.222Z,100961.12
2017-08-15T07:32:45.626Z,100956.25
2017-08-15T07:35:13.028Z,100948.17
2017-08-15T07:37:40.439Z,100940.77
2017-08-15T07:40:07.831Z,100934.95
2017-08-15T07:42:35.231Z,100928.81
2017-08-15T07:45:02.838Z,100926.70
2017-08-15T07:47:30.235Z,100934.03
2017-08-15T07:49:57.632Z,100942.79
2017-08-15T07:52:25.035Z,100951.03
2017-08-15T07:54:52.447Z,100951.84
2017-08-15T07:57:19.851Z,100953.83
2017-08-15T07:59:47.232Z,100942.70
2017-08-15T08:02:14.639Z,100943.62
2017-08-15T08:04:42.027Z,100948.15
2017-08-15T08:07:09.627Z,100947.17
2017-08-15T08:09:37.023Z,100956.36
2017-08-15T08:12:04.412Z,100960.72
2017-08-15T08:14:31.806Z,100957.66
2017-08-15T08:17:00.197Z,100958.06
2017-08-15T08:19:27.586Z,100956.19
2017-08-15T08:21:54.987Z,100958.87
2017-08-15T08:24:22.598Z,100964.92
2017-08-15T08:26:49.984Z,100957.22
2017-08-15T08:29:17.404Z,100953.78
2017-08-15T08:31:44.791Z,100953.67
2017-08-15T08:34:12.223Z,100958.61
2017-08-15T08:36:39.638Z,100942.31
2017-08-15T08:39:07.031Z,100943.84
2017-08-15T08:41:34.422Z,100952.97
2017-08-15T08:44:01.821Z,100954.88
2017-08-15T08:46:29.220Z,100949.30
2017-08-15T08:48:56.619Z,100947.30
2017-08-15T08:51:24.021Z,100943.91
2017-08-15T08:53:51.427Z,100943.39
2017-08-15T08:56:18.827Z,100936.52
2017-08-15T08:58:46.434Z,100928.78
2017-08-15T09:01:13.843Z,100921.09
2017-08-15T09:03:41.233Z,100913.84
2017-08-15T09:06:08.633Z,100913.78
2017-08-15T09:08:36.026Z,100919.08
2017-08-15T09:11:03.419Z,100911.49
2017-08-15T09:13:30.805Z,100912.17
2017-08-15T09:15:58.207Z,100908.20
2017-08-15T09:18:25.590Z,100916.16
2017-08-15T09:20:53.019Z,100921.45
2017-08-15T09:23:20.415Z,100931.45
2017-08-15T09:25:47.825Z,100923.03
2017-08-15T09:28:15.231Z,100922.17
2017-08-15T09:30:42.619Z,100926.83
2017-08-15T09:33:10.050Z,100929.86
2017-08-15T09:35:37.416Z,100935.67
2017-08-15T09:38:04.823Z,100930.67
2017-08-15T09:40:32.215Z,100940.69
2017-08-15T09:43:00.374Z,100943.33
2017-08-15T09:45:27.770Z,100945.80
2017-08-15T09:47:55.160Z,100950.41
2017-08-15T09:50:22.557Z,100953.89
2017-08-15T09:52:49.948Z,100955.54
2017-08-15T09:55:17.558Z,100956.26
2017-08-15T09:57:44.975Z,100955.08
2017-08-15T10:00:12.359Z,100960.46
2017-08-15T10:02:39.750Z,100957.26
2017-08-15T10:05:07.147Z,100950.17
2017-08-15T10:07:34.567Z,100948.06
2017-08-15T10:10:01.946Z,100953.88
2017-08-15T10:12:29.332Z,100961.28
2017-08-15T10:14:56.734Z,100953.31
2017-08-15T10:17:24.164Z,100953.57
2017-08-15T10:19:51.568Z,100948.13
2017-08-15T10:22:18.950Z,100942.94
2017-08-15T10:24:46.561Z,100955.34
2017-08-15T10:27:13.947Z,100950.34
2017-08-15T10:29:41.347Z,100946.08
2017-08-15T10:32:08.746Z,100946.72
2017-08-15T10:34:36.135Z,100940.66
2017-08-15T10:37:03.535Z,100936.80
2017-08-15T10:39:30.955Z,100936.06
2017-08-15T10:41:58.346Z,100933.48
2017-08-15T10:44:25.771Z,100923.52
2017-08-15T10:46:53.167Z,100920.09
2017-08-15T10:49:20.572Z,100919.46
2017-08-15T10:51:47.966Z,100914.44
2017-08-15T10:54:15.368Z,100907.84
2017-08-15T10:56:42.764Z,100909.83
2017-08-15T10:59:10.183Z,100903.54
2017-08-15T11:01:37.581Z,100902.80
2017-08-15T11:04:04.983Z,100902.52
2017-08-15T11:06:32.375Z,100905.66
2017-08-15T11:08:59.770Z,100902.16
2017-08-15T11:11:27.383Z,100904.36
2017-08-15T11:13:54.775Z,100906.33
2017-08-15T11:16:22.391Z,100902.81
2017-08-15T11:18:49.778Z,100897.53
2017-08-15T11:21:17.179Z,100893.05
2017-08-15T11:23:44.571Z,100889.59
2017-08-15T11:26:11.978Z,100897.13
2017-08-15T11:28:39.363Z,100898.25
2017-08-15T11:31:06.802Z,100898.81
2017-08-15T11:33:34.387Z,100902.17
2017-08-15T11:36:01.787Z,100899.67
2017-08-15T11:38:29.186Z,100899.88
2017-08-15T11:40:56.579Z,100891.31
2017-08-15T11:43:23.976Z,100887.81
2017-08-15T11:45:51.371Z,100886.14
2017-08-15T11:48:18.763Z,100888.06
2017-08-15T11:50:46.374Z,100886.79
2017-08-15T11:53:13.776Z,100880.92
2017-08-15T11:55:41.177Z,100884.51
2017-08-15T11:58:08.568Z,100885.01
2017-08-15T12:00:35.965Z,100875.52
2017-08-15T12:03:03.356Z,100872.61
2017-08-15T12:05:30.752Z,100864.64
2017-08-15T12:07:58.143Z,100861.09
2017-08-15T12:10:25.536Z,100854.72
2017-08-15T12:12:52.947Z,100860.36
2017-08-15T12:15:20.535Z,100856.00
2017-08-15T12:17:47.941Z,100844.14
2017-08-15T12:20:15.324Z,100846.57
2017-08-15T12:22:42.727Z,100848.44
2017-08-15T12:25:10.114Z,100844.67
2017-08-15T12:27:37.517Z,100844.19
2017-08-15T12:30:04.913Z,100836.83
2017-08-15T12:32:32.311Z,100827.94
2017-08-15T12:34:59.690Z,100831.31
2017-08-15T12:37:27.103Z,100833.53
2017-08-15T12:39:54.494Z,100838.09
2017-08-15T12:42:21.917Z,100836.83
2017-08-15T12:44:49.304Z,100832.63
2017-08-15T12:47:16.710Z,100826.38
2017-08-15T12:49:44.096Z,100826.16
2017-08-15T12:52:11.517Z,100825.19
2017-08-15T12:54:38.919Z,100824.47
2017-08-15T12:57:06.327Z,100824.53
2017-08-15T12:59:33.738Z,100819.14
2017-08-15T13:02:01.146Z,100812.92
2017-08-15T13:04:28.541Z,100808.75
2017-08-15T13:06:55.948Z,100803.11
2017-08-15T13:09:23.359Z,100797.29
2017-08-15T13:11:50.759Z,100792.45
2017-08-15T13:14:18.147Z,100792.78
2017-08-15T13:16:45.543Z,100794.44
2017-08-15T13:19:13.151Z,100785.52
2017-08-15T13:21:40.541Z,100787.00
2017-08-15T13:24:07.935Z,100783.70
2017-08-15T13:26:35.327Z,100775.19
2017-08-15T13:29:02.747Z,100773.77
2017-08-15T13:31:30.356Z,100773.15
2017-08-15T13:33:57.746Z,100773.72
2017-08-15T13:36:25.153Z,100772.65
2017-08-15T13:38:52.563Z,100767.61
2017-08-15T13:41:19.961Z,100765.38
2017-08-15T13:43:47.351Z,100758.58
2017-08-15T13:46:14.965Z,100751.77
2017-08-15T13:48:42.575Z,100755.98
2017-08-15T13:51:09.982Z,100754.12
2017-08-15T13:53:37.362Z,100756.48
2017-08-15T13:56:04.760Z,100750.40
2017-08-15T13:58:32.371Z,100753.66
2017-08-15T14:00:59.764Z,100751.30
2017-08-15T14:03:27.170Z,100753.15
2017-08-15T14:05:54.565Z,100746.86
2017-08-15T14:08:21.957Z,100739.52
2017-08-15T14:10:49.352Z,100744.11
2017-08-15T14:13:16.747Z,100740.24
2017-08-15T14:15:44.156Z,100740.73
2017-08-15T14:18:11.543Z,100749.42
2017-08-15T14:20:38.939Z,100757.25
2017-08-15T14:23:06.340Z,100757.72
2017-08-15T14:25:33.752Z,100758.30
2017-08-15T14:28:01.377Z,100758.35
2017-08-15T14:30:28.763Z,100765.59
2017-08-15T14:32:56.151Z,100774.55
2017-08-15T14:35:23.534Z,100777.09
2017-08-15T14:37:50.931Z,100783.12
2017-08-15T14:40:18.338Z,100783.78
2017-08-15T14:42:45.736Z,100784.95
2017-08-15T14:45:13.127Z,100786.80
2017-08-15T14:47:40.527Z,100787.44
2017-08-15T14:50:07.940Z,100775.77
2017-08-15T14:52:35.343Z,100778.29
2017-08-15T14:55:02.736Z,100774.05
2017-08-15T14:57:30.139Z,100766.17
2017-08-15T14:59:57.548Z,100768.77
2017-08-15T15:02:24.945Z,100760.42
2017-08-15T15:04:52.352Z,100754.06
2017-08-15T15:07:19.744Z,100762.08
2017-08-15T15:09:47.140Z,100768.84
2017-08-15T15:12:14.546Z,100763.38
2017-08-15T15:14:41.928Z,100769.44
2017-08-15T15:17:09.323Z,100766.81
2017-08-15T15:19:36.718Z,100775.66
2017-08-15T15:22:04.099Z,100775.42
2017-08-15T15:24:31.499Z,100772.05
2017-08-15T15:26:58.883Z,100773.44
2017-08-15T15:29:26.286Z,100771.12
2017-08-15T15:31:53.715Z,100771.37
2017-08-15T15:34:21.115Z,100761.66
2017-08-15T15:36:48.718Z,100764.52
2017-08-15T15:39:16.125Z,100757.47
2017-08-15T15:41:43.516Z,100758.77
2017-08-15T15:44:10.919Z,100752.23
2017-08-15T15:46:38.302Z,100753.87
2017-08-15T15:49:05.694Z,100742.66
2017-08-15T15:51:33.088Z,100732.69
2017-08-15T15:54:01.297Z,100722.53
2017-08-15T15:56:28.679Z,100717.55
2017-08-15T15:58:56.079Z,100716.31
2017-08-15T16:01:23.471Z,100706.58
2017-08-15T16:03:50.863Z,100707.47
2017-08-15T16:06:18.246Z,100691.34
2017-08-15T16:08:45.646Z,100693.33
2017-08-15T16:11:13.254Z,100687.80
2017-08-15T16:13:40.663Z,100692.16
2017-08-15T16:16:08.047Z,100688.91
2017-08-15T16:18:35.656Z,100692.27
2017-08-15T16:21:03.051Z,100692.11
2017-08-15T16:23:30.515Z,100683.33
2017-08-15T16:25:58.171Z,100683.38
2017-08-15T16:28:25.602Z,100683.39
2017-08-15T16:30:53.008Z,100680.48
2017-08-15T16:33:20.420Z,100674.22
2017-08-15T16:35:47.815Z,100677.75
2017-08-15T16:38:15.220Z,100679.91
2017-08-15T16:40:42.603Z,100683.72
2017-08-15T16:43:10.278Z,100680.95
2017-08-15T16:45:37.953Z,100671.55
2017-08-15T16:48:05.737Z,100659.97
2017-08-15T16:50:33.798Z,100654.57
2017-08-15T16:53:01.660Z,100649.95
2017-08-15T16:55:29.124Z,100644.03
2017-08-15T16:57:56.722Z,100637.49
2017-08-15T17:00:24.135Z,100630.62
2017-08-15T17:02:51.534Z,100620.72
2017-08-15T17:05:18.928Z,100619.56
2017-08-15T17:07:46.337Z,100627.40
2017-08-15T17:10:13.715Z,100626.28
2017-08-15T17:12:41.130Z,100622.05
2017-08-15T17:15:08.668Z,100639.85
2017-08-15T17:17:36.055Z,100651.00
2017-08-15T17:20:03.451Z,100665.42
2017-08-15T17:22:30.859Z,100676.12
2017-08-15T17:24:58.239Z,100779.85
2017-08-15T17:27:25.656Z,100804.81
2017-08-15T17:29:53.055Z,100818.95
2017-08-15T17:32:20.467Z,100750.20
2017-08-15T17:34:47.859Z,100718.84
2017-08-15T17:37:15.276Z,100697.27
2017-08-15T17:39:42.671Z,100683.27
2017-08-15T17:42:10.073Z,100664.11
2017-08-15T17:44:37.467Z,100671.23
2017-08-15T17:47:04.863Z,100663.48
2017-08-15T17:49:32.266Z,100667.95
2017-08-15T17:51:59.659Z,100669.11
2017-08-15T17:54:27.071Z,100707.39
2017-08-15T17:56:54.482Z,100732.17
2017-08-15T17:59:21.883Z,100738.51
2017-08-15T18:01:49.283Z,100713.16
2017-08-15T18:04:16.690Z,100753.28
2017-08-15T18:06:44.076Z,100756.73
2017-08-15T18:09:11.459Z,100772.31
2017-08-15T18:11:38.860Z,100773.48
2017-08-15T18:14:06.255Z,100766.47
2017-08-15T18:16:33.655Z,100763.02
2017-08-15T18:19:01.074Z,100760.14
2017-08-15T18:21:28.468Z,100758.91
2017-08-15T18:23:57.436Z,100769.23
2017-08-15T18:26:24.840Z,100765.13
2017-08-15T18:28:52.451Z,100764.62
2017-08-15T18:31:19.844Z,100771.12
2017-08-15T18:33:47.459Z,100790.13
2017-08-15T18:36:14.847Z,100796.92
2017-08-15T18:38:42.235Z,100792.45
2017-08-15T18:41:09.639Z,100800.59
2017-08-15T18:43:37.036Z,100808.78
2017-08-15T18:46:04.456Z,100820.86
2017-08-15T18:48:31.835Z,100841.59
2017-08-15T18:50:59.235Z,100869.60
2017-08-15T18:53:26.631Z,100850.07
2017-08-15T18:55:54.023Z,100860.67
2017-08-15T18:58:21.420Z,100871.48
2017-08-15T19:00:48.824Z,100885.71
2017-08-15T19:03:16.221Z,100895.18
2017-08-15T19:05:43.629Z,100925.67
2017-08-15T19:08:11.017Z,100971.50
2017-08-15T19:10:38.407Z,100981.08
2017-08-15T19:13:06.018Z,100990.56
2017-08-15T19:15:33.415Z,100985.91
2017-08-15T19:18:00.825Z,100985.02
2017-08-15T19:20:28.443Z,100986.22
2017-08-15T19:22:55.841Z,100999.08
2017-08-15T19:25:23.233Z,101000.95
2017-08-15T19:27:50.836Z,101006.17
2017-08-15T19:30:18.234Z,100994.44
2017-08-15T19:32:46.722Z,100986.39
2017-08-15T19:35:14.144Z,100970.50
2017-08-15T19:37:41.547Z,100951.47
2017-08-15T19:40:08.995Z,100955.09
2017-08-15T19:42:36.395Z,100967.76
2017-08-15T19:45:03.783Z,100971.62
2017-08-15T19:47:31.403Z,100968.51
2017-08-15T19:49:58.795Z,100949.78
2017-08-15T19:52:26.227Z,100946.67
2017-08-15T19:54:53.616Z,100952.95
2017-08-15T19:57:21.132Z,100927.77
2017-08-15T19:59:48.511Z,100910.36
2017-08-15T20:02:16.719Z,100902.57
2017-08-15T20:04:44.108Z,100902.42
2017-08-15T20:07:11.783Z,100898.39
2017-08-15T20:09:39.167Z,100907.82
2017-08-15T20:12:06.562Z,100909.24
2017-08-15T20:14:33.968Z,100908.27
2017-08-15T20:17:01.612Z,100895.03
2017-08-15T20:19:29.045Z,100893.19
2017-08-15T20:21:56.443Z,100886.61
2017-08-15T20:24:23.896Z,100898.56
2017-08-15T20:26:51.333Z,100898.22
2017-08-15T20:29:18.730Z,100894.66
2017-08-15T20:31:46.118Z,100902.78
2017-08-15T20:34:13.538Z,100903.89
2017-08-15T20:36:40.936Z,100900.14
2017-08-15T20:39:08.331Z,100906.02
2017-08-15T20:41:35.750Z,100900.63
2017-08-15T20:44:03.142Z,100897.48
2017-08-15T20:46:30.537Z,100903.88
2017-08-15T20:48:57.951Z,100910.36
2017-08-15T20:51:25.332Z,100907.85
2017-08-15T20:53:52.730Z,100899.89
2017-08-15T20:56:20.140Z,100909.92
2017-08-15T20:58:47.536Z,100913.13
2017-08-15T21:01:14.933Z,100913.25
2017-08-15T21:03:42.341Z,100917.36
2017-08-15T21:06:09.723Z,100911.19
2017-08-15T21:08:37.335Z,100914.78
2017-08-15T21:11:04.733Z,100919.41
2017-08-15T21:13:32.143Z,100919.47
2017-08-15T21:15:59.532Z,100925.53
2017-08-15T21:18:26.924Z,100930.58
2017-08-15T21:20:54.323Z,100934.66
2017-08-15T21:23:21.727Z,100925.70
2017-08-15T21:25:49.118Z,100934.98
2017-08-15T21:28:16.525Z,100940.83
2017-08-15T21:30:43.908Z,100945.42
2017-08-15T21:33:11.650Z,100941.82
2017-08-15T21:35:39.392Z,100960.67
2017-08-15T21:38:07.237Z,100948.98
2017-08-15T21:40:34.924Z,100968.60
2017-08-15T21:43:02.606Z,100967.03
2017-08-15T21:45:30.250Z,100976.25
2017-08-15T21:47:57.659Z,100973.77
2017-08-15T21:50:25.051Z,100970.05
2017-08-15T21:52:52.451Z,100963.64
2017-08-15T21:55:19.844Z,100955.06
2017-08-15T21:57:47.226Z,100950.06
2017-08-15T22:00:14.631Z,100956.59
2017-08-15T22:02:42.010Z,100967.31
2017-08-15T22:05:09.403Z,100966.02
2017-08-15T22:07:36.790Z,100975.86
2017-08-15T22:10:04.178Z,100981.57
2017-08-15T22:12:31.582Z,100978.38
2017-08-15T22:14:59.181Z,100977.23
2017-08-15T22:17:26.579Z,100977.34
2017-08-15T22:19:53.970Z,100978.85
2017-08-15T22:22:21.359Z,100988.95
2017-08-15T22:24:48.767Z,100988.02
2017-08-15T22:27:16.151Z,100980.46
2017-08-15T22:29:43.544Z,100971.28
2017-08-15T22:32:11.156Z,100969.23
2017-08-15T22:34:38.603Z,100978.75
2017-08-15T22:37:06.224Z,100980.11
2017-08-15T22:39:33.624Z,100980.31
2017-08-15T22:42:01.022Z,100980.67
2017-08-15T22:44:28.431Z,100981.10
2017-08-15T22:46:55.823Z,100984.72
2017-08-15T22:49:23.215Z,100992.55
2017-08-15T22:51:50.636Z,100991.87
2017-08-15T22:54:18.024Z,100987.23
2017-08-15T22:56:45.417Z,100996.08
2017-08-15T22:59:12.803Z,101023.08
2017-08-15T23:01:40.192Z,101042.95
2017-08-15T23:04:07.590Z,101057.02
2017-08-15T23:06:34.996Z,101034.78
2017-08-15T23:09:02.392Z,101026.14
2017-08-15T23:11:29.783Z,101017.58
2017-08-15T23:13:57.188Z,101029.56
2017-08-15T23:16:24.578Z,101030.03
2017-08-15T23:18:51.979Z,101037.39
2017-08-15T23:21:19.368Z,101038.64
2017-08-15T23:23:46.774Z,101041.49
2017-08-15T23:26:14.160Z,101035.53
2017-08-15T23:28:41.560Z,101045.31
2017-08-15T23:31:08.951Z,101049.34
2017-08-15T23:33:36.342Z,101051.05
2017-08-15T23:36:03.734Z,101044.50
2017-08-15T23:38:31.128Z,101039.52
2017-08-15T23:40:58.510Z,101030.55
2017-08-15T23:43:25.903Z,101029.27
2017-08-15T23:45:53.295Z,101035.66
2017-08-15T23:48:20.695Z,101033.24
2017-08-15T23:50:48.079Z,101040.87
2017-08-15T23:53:15.475Z,101048.84
2017-08-15T23:55:42.867Z,101051.64
2017-08-15T23:58:10.268Z,101060.05
